Tiempo atmosférico en la estación meteorológica de Mosqueruela, Teruel (1505 m.)



Fecha
DESCASC
Temp. máxima en grados centígrados (hora)
DESCASC
Temp. mínima en grados centígrados (hora)
DESCASC
Temp. media en grados centígrados
DESCASC
Racha de viento máxima en m/sg (hora)
DESCASC
Velocidad máxima media en intervalos de 10 minutos(hora)
DESCASC
Precipitaciones diarias en mm
DESCASC
Precipitaciones de 00:00 a 06:00 en mm
DESCASC
Precipitaciones de 06:00 a 12:00 en mm
DESCASC
Precipitaciones de 12:00 a 18:00 en mm
DESCASC
Precipitaciones de 18:00 a 24:00 en mm
DESCASC
16-06-2019 20.4 (14:40) 7 (04:50) 13.7 12.22 (15:30) 6.94 (15:50) 0 0 0 0 0
15-06-2019 21.7 (17:00) 8.2 (06:40) 15 10.28 (08:00) 8.61 (08:00) 0 0 0 0 0
14-06-2019 21.8 (17:30) 8.7 (00:50) 15.2 12.5 (18:20) 7.22 (18:20) 0 0 0 0 0
13-06-2019 17.5 (17:00) 5.9 (00:00) 11.7 10 (14:20) 5.83 (13:30) 0 0 0 0 0
12-06-2019 15.8 (15:10) 1.3 (00:00) 8.6 13.33 (17:30) 6.94 (00:10) 0 0 0 0 0
11-06-2019 10.1 (11:30) 3.6 (00:00) 6.9 14.17 (19:10) 9.17 (15:40) 0.6 0 0 0.6 0
10-06-2019 18.9 (16:10) 8.3 (00:00) 13.6 9.17 (20:40) 5.28 (20:40) 1.8 0 0 0 1.8
09-06-2019 23.2 (17:10) 8.5 (00:00) 15.9 9.17 (16:40) 6.11 (16:50) 0 0 0 0 0
08-06-2019 16 (14:30) 4.5 (00:00) 10.3 10.83 (16:30) 6.67 (14:10) 0 0 0 0 0
07-06-2019 19.5 (16:50) 6.3 (00:00) 12.9 12.22 (09:40) 6.94 (09:40) 0 0 0 0 0
06-06-2019 14.3 (16:00) 5.7 (00:00) 10 12.22 (15:50) 7.78 (14:30) 0 0 0 0 0
05-06-2019 15.3 (02:30) 6.1 (00:00) 10.7 16.11 (13:50) 11.67 (13:50) 0 0 0 0 0
04-06-2019 23.9 (13:30) 12.6 (00:00) 18.3 11.11 (16:10) 7.22 (16:10) 0 0 0 0 0
03-06-2019 25.3 (14:10) 14.1 (00:00) 19.7 10 (12:50) 6.67 (12:50) 0 0 0 0 0
02-06-2019 23.7 (12:30) 11.6 (00:00) 17.7 7.78 (15:40) 5.28 (23:59) 0 0 0 0 0
01-06-2019 21.8 (14:50) 8 (00:00) 14.9 8.33 (14:40) 5.28 (14:40) 0 0 0 0 0
31-05-2019 20.1 (15:40) 8.8 (00:00) 14.5 7.5 (13:50) 5 (13:50) 0 0 0 0 0
30-05-2019 21.1 (16:10) 4.8 (00:00) 13 11.67 (01:10) 8.89 (01:10) 0 0 0 0 0
29-05-2019 14.5 (16:50) 2.6 (00:00) 8.5 25 (09:20) 19.17 (08:40) 0 0 0 0 0
28-05-2019 16 (16:30) 4.9 (00:00) 10.5 17.22 (23:30) 11.67 (23:59) 0 0 0 0 0
27-05-2019 19.5 (15:40) 7 (00:00) 13.3 13.61 (04:20) 10.83 (04:20) 0 0 0 0 0
26-05-2019 15.4 (16:10) 3.2 (00:00) 9.3 12.5 (16:30) 9.44 (01:40) 0 0 0 0 0
25-05-2019 13.8 (16:30) 4.3 (00:00) 9.1 18.61 (06:10) 13.61 (06:10) 0.4 0.4 0 0 0
24-05-2019 11.4 (00:10) 5.9 (00:00) 8.6 13.61 (21:20) 8.33 (17:50) 11.6 4.8 6.2 0.6 0
23-05-2019 19.6 (15:10) 9.8 (00:00) 14.7 7.78 (20:50) 5 (20:50) 0 0 0 0 0
22-05-2019 16.6 (15:10) 4.8 (00:00) 10.7 6.94 (10:50) 5 (07:20) 0 0 0 0 0
21-05-2019 13.4 (11:30) 3.3 (04:50) 8.3 9.17 (15:40) 5.83 (15:50) 6.8 0 0 5.8 1

Gráficas

Temp. máximas Temp. mínimas Temp. medias Precipitaciones Rachas de viento máximas Velocidades máximas media en intervalos de 10 minutos

Datos horarios

Fecha y hora oficial Temperatura (ºC) Velocidad del viento (km/h) Dirección del viento Racha (km/h) Dirección de racha Precipitación (mm) Presión (hPa) Tendencia (hPa) Humedad (%)
2019-06-19 23:00:00 15.4 13 Oeste 17 Oeste 0 -- -- 65
2019-06-19 22:00:00 16.3 12 Sudoeste 24 Sur 0 -- -- 61
2019-06-19 21:00:00 18.1 16 Sur 24 Sur 0 -- -- 59
2019-06-19 20:00:00 20.4 17 Sur 31 Sudeste 0 -- -- 52
2019-06-19 19:00:00 22.2 16 Sudeste 31 Sur 0 -- -- 49
2019-06-19 18:00:00 23.4 18 Sur 30 Sur 0 -- -- 44
2019-06-19 17:00:00 23.9 17 Sur 34 Sur 0 -- -- 42
2019-06-19 16:00:00 24 18 Sudeste 35 Oeste 0 -- -- 39
2019-06-19 15:00:00 24.8 16 Sur 35 Sur 0 -- -- 30
2019-06-19 14:00:00 24.4 17 Sur 36 Sur 0 -- -- 27
2019-06-19 13:00:00 23.4 14 Sudeste 28 Este 0 -- -- 30
2019-06-19 12:00:00 23 10 Sudeste 29 Sudeste 0 -- -- 27
2019-06-19 11:00:00 22.1 13 Sudeste 22 Sudeste 0 -- -- 29
2019-06-19 10:00:00 20.9 11 Oeste 23 Sudoeste 0 -- -- 27
2019-06-19 09:00:00 18.7 18 Oeste 30 Oeste 0 -- -- 35
2019-06-19 08:00:00 16.1 12 Oeste 31 Oeste 0 -- -- 51
2019-06-19 07:00:00 13.2 24 Oeste 31 Oeste 0 -- -- 49
2019-06-19 06:00:00 14 20 Oeste 27 Oeste 0 -- -- 36
2019-06-19 05:00:00 14.9 19 Oeste 28 Oeste 0 -- -- 34
2019-06-19 04:00:00 14.4 21 Oeste 27 Oeste 0 -- -- 37
2019-06-19 03:00:00 14.2 20 Oeste 27 Oeste 0 -- -- 41
2019-06-19 02:00:00 13.2 10 Sudoeste 15 Sudoeste 0 -- -- 57
2019-06-19 01:00:00 13.7 11 Sudoeste 16 Sudoeste 0 -- -- 51
2019-06-19 00:00:00 14.4 13 Sudoeste 15 Sudoeste 0 -- -- 46
2019-06-18 23:00:00 14.7 12 Sudoeste 15 Sudoeste 0 -- -- 48
2019-06-18 22:00:00 14.9 10 Sudoeste 17 Sur 0 -- -- 52
2019-06-18 21:00:00 -- -- -- -- -- -- -- -- --
2019-06-18 20:00:00 20.2 11 Sur 21 Sudeste 0 -- -- 43
2019-06-18 19:00:00 21.5 13 Sur 32 Este 0 -- -- 42
2019-06-18 18:00:00 22.3 15 Sudeste 32 Sudeste 0 -- -- 45
2019-06-18 17:00:00 23 19 Sudeste 39 Sudeste 0 -- -- 46
2019-06-18 16:00:00 23.8 15 Sudeste 35 Sur 0 -- -- 40
2019-06-18 15:00:00 24 17 Sudeste 40 Sudeste 0 -- -- 32
2019-06-18 14:00:00 23.4 21 Sudeste 39 Sudeste 0 -- -- 31
2019-06-18 13:00:00 23.5 19 Sudeste 34 Sur 0 -- -- 31
2019-06-18 12:00:00 23.2 19 Sur 39 Sudeste 0 -- -- 30
2019-06-18 11:00:00 22.5 17 Sur 30 Sur 0 -- -- 29
2019-06-18 10:00:00 21.7 19 Sur 30 Sur 0 -- -- 31
2019-06-18 09:00:00 19 16 Sudoeste 24 Sur 0 -- -- 31
2019-06-18 08:00:00 17.8 5 Sur 23 Sudoeste 0 -- -- 37
2019-06-18 07:00:00 17.3 12 Sudoeste 22 Sudoeste 0 -- -- 35
2019-06-18 06:00:00 17 13 Sudoeste 21 Sudoeste 0 -- -- 36
2019-06-18 05:00:00 14.8 9 Sudoeste 17 Sudoeste 0 -- -- 45
2019-06-18 04:00:00 15.2 11 Sur 22 Sur 0 -- -- 43
2019-06-18 03:00:00 15.4 14 Sur 21 Sur 0 -- -- 40
2019-06-18 02:00:00 15.1 12 Sudoeste 22 Sudoeste 0 -- -- 41
2019-06-18 01:00:00 14.8 12 Sur 22 Sur 0 -- -- 41
2019-06-18 00:00:00 14 11 Sur 17 Sur 0 -- -- 45
2019-06-17 23:00:00 13.5 11 Sur 14 Sur 0 -- -- 53
2019-06-17 22:00:00 15.3 12 Sur 18 Sur 0 -- -- 50
2019-06-17 21:00:00 17 12 Sur 19 Sur 0 -- -- 50
2019-06-17 20:00:00 20 14 Sur 26 Sudeste 0 -- -- 41
2019-06-17 19:00:00 21.4 15 Sur 28 Sudeste 0 -- -- 41
2019-06-17 18:00:00 21.7 17 Sudeste 32 Sudeste 0 -- -- 44
2019-06-17 17:00:00 22.4 16 Sudeste 35 Este 0 -- -- 45
2019-06-17 16:00:00 21.1 20 Este 31 Este 0 -- -- 50
2019-06-17 15:00:00 22.6 16 Sudeste 27 Este 0 -- -- 43
2019-06-17 14:00:00 21.5 13 Este 26 Este 0 -- -- 42
2019-06-17 13:00:00 22.6 17 Este 27 Este 0 -- -- 36
2019-06-17 12:00:00 23.4 8 Sudeste 23 Este 0 -- -- 30
2019-06-17 11:00:00 22.2 6 Nordeste 17 Nordeste 0 -- -- 34
2019-06-17 10:00:00 21.2 9 Norte 16 Norte 0 -- -- 35
2019-06-17 09:00:00 19.7 6 Norte 15 Norte 0 -- -- 39
2019-06-17 08:00:00 17.1 4 Norte 14 Oeste 0 -- -- 46
2019-06-17 07:00:00 13 7 Noroeste 14 Oeste 0 -- -- 51
2019-06-17 06:00:00 12.6 11 Oeste 15 Oeste 0 -- -- 52
2019-06-17 05:00:00 12.7 9 Oeste 17 Oeste 0 -- -- 54
2019-06-17 04:00:00 12.8 15 Oeste 22 Oeste 0 -- -- 57
2019-06-17 03:00:00 13.8 22 Oeste 28 Oeste 0 -- -- 56
2019-06-17 02:00:00 13.7 20 Oeste 26 Oeste 0 -- -- 60
2019-06-17 01:00:00 14.4 22 Oeste 29 Oeste 0 -- -- 59
2019-06-17 00:00:00 14.8 22 Oeste 28 Oeste 0 -- -- 59
2019-06-16 23:00:00 13.8 6 Sudoeste 15 Sudoeste 0 -- -- 67
2019-06-16 22:00:00 14 3 Sudoeste 10 Sudoeste 0 -- -- 59
2019-06-16 21:00:00 14.7 3 Sur 27 Sur 0 -- -- 70
2019-06-16 20:00:00 15.9 18 Sur 29 Sur 0 -- -- 69
2019-06-16 19:00:00 16.9 15 Sur 27 Sur 0 -- -- 66
2019-06-16 18:00:00 18.5 17 Sur 34 Sur 0 -- -- 58
2019-06-16 17:00:00 19.9 21 Sur 35 Sur 0 -- -- 54
2019-06-16 16:00:00 19.3 23 Sur 44 Sur 0 -- -- 53
2019-06-16 15:00:00 20.2 21 Sur 35 Sudeste 0 -- -- 48
2019-06-16 14:00:00 19.6 18 Sudeste 35 Sur 0 -- -- 49
2019-06-16 13:00:00 18.5 15 Sudeste 29 Sudeste 0 -- -- 48
2019-06-16 12:00:00 18.8 9 Sudeste 24 Sudeste 0 -- -- 40
2019-06-16 11:00:00 17.1 14 Sudeste 25 Sudeste 0 -- -- 41
2019-06-16 10:00:00 16.3 13 Sudeste 25 Sudeste 0 -- -- 43
2019-06-16 09:00:00 15.2 10 Sur 17 Sudeste 0 -- -- 45
2019-06-16 08:00:00 13.8 6 Sur 10 Sur 0 -- -- 50
2019-06-16 07:00:00 8.8 5 Sudoeste 9 Sur 0 -- -- 67
2019-06-16 06:00:00 8.3 6 Sur 12 Sudoeste 0 -- -- 68
2019-06-16 05:00:00 7.3 8 Sudoeste 12 Sudoeste 0 -- -- 74
2019-06-16 04:00:00 7.7 5 Oeste 9 Oeste 0 -- -- 72
2019-06-16 03:00:00 7.8 6 Sudoeste 10 Sudoeste 0 -- -- 72
2019-06-16 02:00:00 8.4 4 Oeste 7 Sudoeste 0 -- -- 71
2019-06-16 01:00:00 9.9 4 Oeste 9 Noroeste 0 -- -- 67
2019-06-16 00:00:00 10.7 6 Oeste 14 Noroeste 0 -- -- 61
2019-06-15 23:00:00 12.4 12 Noroeste 18 Noroeste 0 -- -- 57
2019-06-15 22:00:00 11.9 5 Oeste 8 Sudoeste 0 -- -- 69
2019-06-15 21:00:00 15.3 4 Nordeste 19 Nordeste 0 -- -- 60
2019-06-15 20:00:00 17.6 9 Nordeste 15 Nordeste 0 -- -- 54
2019-06-15 19:00:00 16.9 12 Este 23 Este 0 -- -- 58
2019-06-15 18:00:00 18.2 18 Este 30 Este 0 -- -- 54
2019-06-15 17:00:00 21.7 17 Sur 36 Sur 0 -- -- 23
2019-06-15 16:00:00 20.6 22 Sudeste 36 Sur 0 -- -- 29
2019-06-15 15:00:00 19.9 19 Sudeste 32 Sudeste 0 -- -- 29
2019-06-15 14:00:00 19.4 15 Sur 31 Sur 0 -- -- 29
2019-06-15 13:00:00 19.3 5 Sudoeste 26 Sur 0 -- -- 26
2019-06-15 12:00:00 17.9 10 Este 23 Sudoeste 0 -- -- 32
2019-06-15 11:00:00 15.9 10 Oeste 19 Sudoeste 0 -- -- 32
2019-06-15 10:00:00 14.2 7 Noroeste 22 Noroeste 0 -- -- 45
2019-06-15 09:00:00 12.6 15 Noroeste 37 Oeste 0 -- -- 49
2019-06-15 08:00:00 10.7 31 Oeste 37 Oeste 0 -- -- 55
2019-06-15 07:00:00 8.8 24 Oeste 36 Oeste 0 -- -- 57
2019-06-15 06:00:00 8.8 27 Oeste 36 Oeste 0 -- -- 54
2019-06-15 05:00:00 9.7 13 Oeste 27 Sudoeste 0 -- -- 54
2019-06-15 04:00:00 10.4 10 Oeste 26 Oeste 0 -- -- 50
2019-06-15 03:00:00 10.8 8 Oeste 18 Oeste 0 -- -- 50
2019-06-15 02:00:00 10.6 5 Sudoeste 13 Sudoeste 0 -- -- 51
2019-06-15 01:00:00 12.8 8 Sur 24 Sudoeste 0 -- -- 45
2019-06-15 00:00:00 13 16 Sudoeste 25 Sudoeste 0 -- -- 46
2019-06-14 23:00:00 12.8 8 Sudoeste 18 Sur 0 -- -- 49
2019-06-14 22:00:00 13.8 8 Sur 18 Sur 0 -- -- 63
2019-06-14 21:00:00 17.2 11 Sur 30 Sur 0 -- -- 45
2019-06-14 20:00:00 19.8 21 Sur 41 Sur 0 -- -- 35
2019-06-14 19:00:00 21 19 Sudoeste 45 Sur 0 -- -- 30
2019-06-14 18:00:00 21.7 18 Sur 43 Sur 0 -- -- 32
2019-06-14 17:00:00 20.1 20 Sur 41 Sudeste 0 -- -- 40
2019-06-14 16:00:00 21.1 17 Sudoeste 36 Sudoeste 0 -- -- 42
2019-06-14 15:00:00 19.7 17 Sur 32 Sudoeste 0 -- -- 49
2019-06-14 14:00:00 19.5 9 Sur 28 Sudeste 0 -- -- 54
2019-06-14 13:00:00 17.9 9 Sudoeste 25 Oeste 0 -- -- 58
2019-06-14 12:00:00 15.6 14 Sudoeste 23 Sudoeste 0 -- -- 65
2019-06-14 11:00:00 17.5 12 Sur 30 Sur 0 -- -- 60
2019-06-14 10:00:00 16 8 Sudeste 18 Este 0 -- -- 64
2019-06-14 09:00:00 15.9 12 Este 24 Este 0 -- -- 61
2019-06-14 08:00:00 15 12 Oeste 24 Oeste 0 -- -- 59
2019-06-14 07:00:00 13.4 19 Oeste 28 Sur 0 -- -- 61
2019-06-14 06:00:00 13 10 Sudoeste 20 Sudoeste 0 -- -- 62
2019-06-14 05:00:00 13.7 7 Oeste 18 Oeste 0 -- -- 54
2019-06-14 04:00:00 11.5 3 Oeste 10 Sudoeste 0 -- -- 67
2019-06-14 03:00:00 11.2 6 Sudoeste 12 Oeste 0 -- -- 77
2019-06-14 02:00:00 9.7 2 Oeste 15 Sudoeste 0 -- -- 84
2019-06-14 01:00:00 8.7 5 Oeste 10 Sudoeste 0 -- -- 87
2019-06-14 00:00:00 9.6 4 Sur 8 Este 0 -- -- 86
2019-06-13 23:00:00 10.2 2 Sudoeste 9 Sudoeste 0 -- -- 84
2019-06-13 22:00:00 11.3 5 Sudoeste 10 Este 0 -- -- 91
2019-06-13 21:00:00 13.2 5 Este 17 Este 0 -- -- 86
2019-06-13 20:00:00 15 8 Sur 15 Sur 0 -- -- 75
2019-06-13 19:00:00 15.4 7 Sudeste 20 Sudeste 0 -- -- 72
2019-06-13 18:00:00 17 12 Sudeste 27 Sur 0 -- -- 66
2019-06-13 17:00:00 17.5 14 Sudeste 27 Sur 0 -- -- 62
2019-06-13 16:00:00 16.2 14 Sudeste 25 Sudeste 0 -- -- 60
2019-06-13 15:00:00 16.5 15 Sudeste 36 Sudeste 0 -- -- 58
2019-06-13 14:00:00 16.3 14 Sudeste 32 Sudeste 0 -- -- 58
2019-06-13 13:00:00 16.2 16 Sudeste 29 Sudeste 0 -- -- 54
2019-06-13 12:00:00 14.8 17 Sudeste 31 Sudeste 0 -- -- 62
2019-06-13 11:00:00 12 17 Sudeste 28 Sur 0 -- -- 76
2019-06-13 10:00:00 11.4 15 Sudeste 24 Sur 0 -- -- 81
2019-06-13 09:00:00 11.7 17 Sur 26 Sur 0 -- -- 80
2019-06-13 08:00:00 9 12 Sur 20 Sur 0 -- -- 96
2019-06-13 07:00:00 8.4 12 Sur 19 Sur 0 -- -- 94
2019-06-13 06:00:00 8.3 10 Sudoeste 17 Sur 0 -- -- 91
2019-06-13 05:00:00 8.3 14 Sur 24 Sur 0 -- -- 93
2019-06-13 04:00:00 7.7 13 Sur 27 Sur 0 -- -- 97
2019-06-13 03:00:00 7.8 18 Sur 32 Sur 0 -- -- 94
2019-06-13 02:00:00 7.2 14 Sur 21 Sur 0 -- -- 91
2019-06-13 01:00:00 5.9 9 Sudoeste 24 Sudoeste 0 -- -- 72
2019-06-13 00:00:00 6.7 13 Sur 23 Sur 0 -- -- 51
2019-06-12 23:00:00 6.1 7 Sur 17 Sudeste 0 -- -- 71
2019-06-12 22:00:00 6.7 11 Sur 19 Sur 0 -- -- 81
2019-06-12 21:00:00 8.8 16 Sur 23 Sur 0 -- -- 74
2019-06-12 20:00:00 11.6 17 Sur 27 Sur 0 -- -- 66
2019-06-12 19:00:00 12.7 19 Sudeste 32 Sur 0 -- -- 64
2019-06-12 18:00:00 13 19 Sudeste 48 Sudeste 0 -- -- 61
2019-06-12 17:00:00 13.7 21 Sur 42 Sur 0 -- -- 55
2019-06-12 16:00:00 15.4 19 Sur 31 Sur 0 -- -- 50
2019-06-12 15:00:00 15.4 16 Sudeste 36 Sur 0 -- -- 39
2019-06-12 14:00:00 14.6 15 Sur 30 Sur 0 -- -- 36
2019-06-12 13:00:00 13.4 14 Sudeste 30 Sudeste 0 -- -- 39
2019-06-12 12:00:00 12.4 9 Sudeste 25 Sudeste 0 -- -- 44
2019-06-12 11:00:00 10.8 13 Sudeste 23 Sur 0 -- -- 44
2019-06-12 10:00:00 10 8 Sudeste 16 Sudeste 0 -- -- 51
2019-06-12 09:00:00 8.6 8 Sudeste 15 Sudeste 0 -- -- 51
2019-06-12 08:00:00 6.6 0 Calma 5 Sur 0 -- -- 59
2019-06-12 07:00:00 2.8 2 Sudeste 15 Oeste 0 -- -- 74
2019-06-12 06:00:00 2.6 10 Oeste 24 Oeste 0 -- -- 74
2019-06-12 05:00:00 1.7 4 Sudoeste 21 Oeste 0 -- -- 80
2019-06-12 04:00:00 2.6 19 Noroeste 27 Noroeste 0 -- -- 81
2019-06-12 03:00:00 2 19 Oeste 26 Noroeste 0 -- -- 88
2019-06-12 02:00:00 1.3 4 Noroeste 26 Oeste 0 -- -- 87
2019-06-12 01:00:00 3.4 23 Oeste 36 Oeste 0 -- -- 83
2019-06-12 00:00:00 3.9 27 Oeste 38 Oeste 0 -- -- 81
2019-06-11 23:00:00 4 11 Oeste 22 Noroeste 0 -- -- 80
2019-06-11 22:00:00 5.1 7 Oeste 30 Noroeste 0 -- -- 75
2019-06-11 21:00:00 6.2 16 Noroeste 41 Oeste 0 -- -- 68
2019-06-11 20:00:00 7.4 30 Oeste 51 Oeste 0 -- -- 67
2019-06-11 19:00:00 6.8 33 Oeste 50 Oeste 0 -- -- 74
2019-06-11 18:00:00 6.4 23 Noroeste 43 Oeste 0 -- -- 73
2019-06-11 17:00:00 5.6 19 Noroeste 36 Noroeste 0 -- -- 84
2019-06-11 16:00:00 3.8 22 Oeste 45 Oeste 0.4 -- -- 93
2019-06-11 15:00:00 4 27 Noroeste 44 Oeste 0.2 -- -- 94
2019-06-11 14:00:00 6.4 27 Noroeste 39 Noroeste 0 -- -- 87
2019-06-11 13:00:00 7 18 Norte 26 Norte 0 -- -- 87
2019-06-11 12:00:00 6.9 15 Noroeste 28 Norte 0 -- -- 86
2019-06-11 11:00:00 9 5 Nordeste 16 Nordeste 0 -- -- 85
2019-06-11 10:00:00 7.5 9 Norte 13 Norte 0 -- -- 90
2019-06-11 09:00:00 7.1 3 Nordeste 8 Nordeste 0 -- -- 92
2019-06-11 08:00:00 6.1 4 Nordeste 8 Nordeste 0 -- -- 95
2019-06-11 07:00:00 6.1 3 Norte 6 Nordeste 0 -- -- 93
2019-06-11 06:00:00 7.8 6 Nordeste 11 Sur 0 -- -- 90
2019-06-11 05:00:00 8.1 7 Sur 14 Sur 0 -- -- 89
2019-06-11 04:00:00 7.8 8 Sur 12 Sur 0 -- -- 88
2019-06-11 03:00:00 7.6 6 Sur 10 Sur 0 -- -- 91
2019-06-11 02:00:00 6.7 2 Sur 6 Oeste 0 -- -- 95
2019-06-11 01:00:00 7 0 Calma 8 Sudoeste 0 -- -- 95
2019-06-11 00:00:00 8.3 2 Oeste 9 Sudoeste 0 -- -- 91
2019-06-10 23:00:00 10.1 3 Noroeste 23 Oeste 0 -- -- 89
2019-06-10 22:00:00 9.6 4 Oeste 17 Noroeste 0.4 -- -- 91
2019-06-10 21:00:00 9.9 10 Noroeste 33 Noroeste 0.6 -- -- 89
2019-06-10 20:00:00 12.7 8 Nordeste 19 Norte 0.8 -- -- 90
2019-06-10 19:00:00 14.5 10 Norte 19 Este 0 -- -- 61
2019-06-10 18:00:00 16.5 9 Norte 22 Nordeste 0 -- -- 55
2019-06-10 17:00:00 17.9 15 Norte 25 Nordeste 0 -- -- 51
2019-06-10 16:00:00 18.6 6 Norte 22 Este 0 -- -- 52
2019-06-10 15:00:00 18.5 10 Este 24 Este 0 -- -- 50
2019-06-10 14:00:00 17 5 Este 23 Este 0 -- -- 54
2019-06-10 13:00:00 15.6 9 Este 20 Este 0 -- -- 61
2019-06-10 12:00:00 15.2 10 Nordeste 28 Nordeste 0 -- -- 59
2019-06-10 11:00:00 16.5 9 Sur 22 Sudoeste 0 -- -- 55
2019-06-10 10:00:00 16.1 5 Sudoeste 16 Sudoeste 0 -- -- 43
2019-06-10 09:00:00 14.8 10 Norte 15 Nordeste 0 -- -- 60
2019-06-10 08:00:00 12.8 4 Sudoeste 18 Oeste 0 -- -- 50
2019-06-10 07:00:00 10.3 14 Oeste 22 Oeste 0 -- -- 51
2019-06-10 06:00:00 11 17 Oeste 22 Oeste 0 -- -- 49
2019-06-10 05:00:00 10.8 17 Oeste 21 Oeste 0 -- -- 58
2019-06-10 04:00:00 9.8 5 Oeste 12 Oeste 0 -- -- 65
2019-06-10 03:00:00 10.5 5 Oeste 19 Noroeste 0 -- -- 67
2019-06-10 02:00:00 11 9 Noroeste 18 Noroeste 0 -- -- 60
2019-06-10 01:00:00 12.6 14 Oeste 20 Noroeste 0 -- -- 50
2019-06-10 00:00:00 13.1 12 Oeste 15 Oeste 0 -- -- 60
2019-06-09 23:00:00 13.6 9 Sudoeste 12 Sudoeste 0 -- -- 61
2019-06-09 22:00:00 13.5 5 Oeste 11 Sudoeste 0 -- -- 62
2019-06-09 21:00:00 15.3 3 Sudoeste 7 Este 0 -- -- 59
2019-06-09 20:00:00 18.3 4 Este 18 Este 0 -- -- 48
2019-06-09 19:00:00 20.3 11 Nordeste 26 Nordeste 0 -- -- 43
2019-06-09 18:00:00 21.6 12 Nordeste 27 Nordeste 0 -- -- 42
2019-06-09 17:00:00 23.1 20 Sur 33 Sudeste 0 -- -- 37
2019-06-09 16:00:00 22.6 19 Sur 29 Sur 0 -- -- 33
2019-06-09 15:00:00 20.9 13 Nordeste 21 Sudeste 0 -- -- 46
2019-06-09 14:00:00 19.5 8 Sudoeste 18 Sudoeste 0 -- -- 39
2019-06-09 13:00:00 18.6 9 Sudoeste 18 Sudoeste 0 -- -- 47
2019-06-09 12:00:00 18.2 3 Nordeste 9 Sudeste 0 -- -- 52
2019-06-09 11:00:00 15.6 6 Sudeste 15 Sur 0 -- -- 57
2019-06-09 10:00:00 14.3 9 Sudeste 20 Sudeste 0 -- -- 59
2019-06-09 09:00:00 13.8 8 Este 15 Sudoeste 0 -- -- 58
2019-06-09 08:00:00 12.6 11 Sudoeste 17 Sudoeste 0 -- -- 57
2019-06-09 07:00:00 10.9 3 Sudoeste 13 Sudoeste 0 -- -- 58
2019-06-09 06:00:00 10.8 6 Sur 12 Sudoeste 0 -- -- 60
2019-06-09 05:00:00 11.5 5 Sur 16 Sudoeste 0 -- -- 56
2019-06-09 04:00:00 10.3 5 Sur 13 Sudoeste 0 -- -- 56
2019-06-09 03:00:00 10.6 9 Sudoeste 11 Sur 0 -- -- 55
2019-06-09 02:00:00 9.9 5 Sur 11 Sudoeste 0 -- -- 50
2019-06-09 01:00:00 8.8 2 Sudoeste 8 Sudoeste 0 -- -- 61
2019-06-09 00:00:00 8.9 4 Sudoeste 8 Sudoeste 0 -- -- 62
2019-06-08 23:00:00 9.4 5 Sudoeste 12 Sudoeste 0 -- -- 59
2019-06-08 22:00:00 9.1 3 Sudoeste 10 Sudeste 0 -- -- 62
2019-06-08 21:00:00 10.9 10 Este 22 Este 0 -- -- 57
2019-06-08 20:00:00 12.3 14 Este 24 Sudeste 0 -- -- 55
2019-06-08 19:00:00 13 18 Este 29 Este 0 -- -- 57
2019-06-08 18:00:00 14.7 20 Este 33 Este 0 -- -- 55
2019-06-08 17:00:00 15.4 22 Este 39 Este 0 -- -- 56
2019-06-08 16:00:00 15.5 20 Este 34 Este 0 -- -- 57
2019-06-08 15:00:00 15.2 24 Este 36 Este 0 -- -- 61
2019-06-08 14:00:00 15.4 23 Este 35 Este 0 -- -- 63
2019-06-08 13:00:00 15.4 19 Este 36 Este 0 -- -- 64
2019-06-08 12:00:00 14.3 16 Este 27 Este 0 -- -- 64
2019-06-08 11:00:00 11.6 17 Este 24 Este 0 -- -- 74
2019-06-08 10:00:00 11.6 12 Este 17 Este 0 -- -- 73
2019-06-08 09:00:00 10 9 Nordeste 18 Este 0 -- -- 78
2019-06-08 08:00:00 7.8 0 Calma 4 Sudeste 0 -- -- 89
2019-06-08 07:00:00 5.6 0 Calma 10 Sudeste 0 -- -- 87
2019-06-08 06:00:00 5.6 2 Sur 6 Oeste 0 -- -- 59
2019-06-08 05:00:00 5.9 4 Oeste 8 Oeste 0 -- -- 56
2019-06-08 04:00:00 6.3 3 Oeste 9 Oeste 0 -- -- 55
2019-06-08 03:00:00 6.8 7 Noroeste 12 Noroeste 0 -- -- 54
2019-06-08 02:00:00 7.1 4 Noroeste 15 Noroeste 0 -- -- 54
2019-06-08 01:00:00 8 12 Noroeste 16 Noroeste 0 -- -- 52
2019-06-08 00:00:00 8.4 11 Noroeste 17 Noroeste 0 -- -- 51
2019-06-07 23:00:00 9.4 12 Noroeste 17 Noroeste 0 -- -- 49
2019-06-07 22:00:00 10.4 6 Noroeste 10 Norte 0 -- -- 50
2019-06-07 21:00:00 13.3 10 Nordeste 26 Nordeste 0 -- -- 44
2019-06-07 20:00:00 14.7 9 Este 24 Nordeste 0 -- -- 66
2019-06-07 19:00:00 16.3 15 Nordeste 31 Nordeste 0 -- -- 62
2019-06-07 18:00:00 17.9 21 Nordeste 36 Nordeste 0 -- -- 58
2019-06-07 17:00:00 19.4 18 Sur 31 Sur 0 -- -- 26
2019-06-07 16:00:00 19.1 17 Sudeste 31 Sudeste 0 -- -- 28
2019-06-07 15:00:00 18.3 17 Sur 34 Sur 0 -- -- 33
2019-06-07 14:00:00 17.9 14 Sudoeste 28 Sur 0 -- -- 35
2019-06-07 13:00:00 16.3 13 Sudoeste 42 Sur 0 -- -- 42
2019-06-07 12:00:00 15.2 13 Oeste 37 Sudoeste 0 -- -- 49
2019-06-07 11:00:00 14.3 16 Oeste 38 Sudoeste 0 -- -- 56
2019-06-07 10:00:00 12.9 15 Sudoeste 44 Sudoeste 0 -- -- 63
2019-06-07 09:00:00 12.1 13 Sudoeste 38 Sudoeste 0 -- -- 67
2019-06-07 08:00:00 10 21 Sur 33 Sur 0 -- -- 72
2019-06-07 07:00:00 8.3 12 Sur 27 Sudoeste 0 -- -- 75
2019-06-07 06:00:00 6.6 7 Sur 19 Sur 0 -- -- 84
2019-06-07 05:00:00 7.6 12 Sur 26 Sur 0 -- -- 96
2019-06-07 04:00:00 7.9 13 Sur 24 Sur 0 -- -- 98
2019-06-07 03:00:00 8.1 13 Sur 22 Sur 0 -- -- 95
2019-06-07 02:00:00 8.6 16 Sur 24 Sur 0 -- -- 92
2019-06-07 01:00:00 8.5 14 Sudeste 23 Sudeste 0 -- -- 91
2019-06-07 00:00:00 8.8 16 Sudeste 27 Sudeste 0 -- -- 91
2019-06-06 23:00:00 8.8 14 Sudeste 21 Sur 0 -- -- 91
2019-06-06 22:00:00 8.2 7 Sudeste 19 Sudeste 0 -- -- 79
2019-06-06 21:00:00 10 10 Sudeste 26 Sudeste 0 -- -- 67
2019-06-06 20:00:00 11 14 Sudeste 38 Este 0 -- -- 75
2019-06-06 19:00:00 13.6 21 Sudeste 37 Este 0 -- -- 65
2019-06-06 18:00:00 13.9 24 Sudeste 37 Sudeste 0 -- -- 61
2019-06-06 17:00:00 12.9 23 Sudeste 37 Sudeste 0 -- -- 66
2019-06-06 16:00:00 14.3 25 Sudeste 44 Sudeste 0 -- -- 63
2019-06-06 15:00:00 13.2 24 Sudeste 41 Sudeste 0 -- -- 65
2019-06-06 14:00:00 13.2 23 Sudeste 42 Sudeste 0 -- -- 66
2019-06-06 13:00:00 13.3 19 Sudeste 35 Sudeste 0 -- -- 64
2019-06-06 12:00:00 12.8 21 Sudeste 41 Sudeste 0 -- -- 63
2019-06-06 11:00:00 12.3 19 Sudeste 35 Sudeste 0 -- -- 57
2019-06-06 10:00:00 11.3 18 Sur 30 Sur 0 -- -- 61
2019-06-06 09:00:00 10.6 15 Sur 24 Sur 0 -- -- 64
2019-06-06 08:00:00 8.5 14 Sur 21 Sur 0 -- -- 76
2019-06-06 07:00:00 6.1 8 Sudoeste 14 Sudoeste 0 -- -- 89
2019-06-06 06:00:00 6.4 12 Sur 18 Sur 0 -- -- 92
2019-06-06 05:00:00 6 8 Sur 15 Sudoeste 0 -- -- 88
2019-06-06 04:00:00 6.3 10 Sudoeste 14 Sudoeste 0 -- -- 85
2019-06-06 03:00:00 6.4 9 Sur 14 Sur 0 -- -- 82
2019-06-06 02:00:00 6.2 12 Sudoeste 14 Sudoeste 0 -- -- 68
2019-06-06 01:00:00 5.9 10 Sudoeste 18 Oeste 0 -- -- 70
2019-06-06 00:00:00 6.1 12 Oeste 15 Oeste 0 -- -- 71
2019-06-05 23:00:00 6.4 12 Oeste 14 Noroeste 0 -- -- 68
2019-06-05 22:00:00 7.9 6 Oeste 20 Oeste 0 -- -- 62
2019-06-05 21:00:00 10.3 13 Oeste 38 Oeste 0 -- -- 53
2019-06-05 20:00:00 11.5 26 Oeste 42 Noroeste 0 -- -- 50
2019-06-05 19:00:00 12.2 22 Oeste 44 Noroeste 0 -- -- 48
2019-06-05 18:00:00 12.4 30 Oeste 46 Noroeste 0 -- -- 45
2019-06-05 17:00:00 12.1 27 Oeste 44 Oeste 0 -- -- 49
2019-06-05 16:00:00 11.3 22 Noroeste 53 Noroeste 0 -- -- 52
2019-06-05 15:00:00 13.1 28 Oeste 55 Oeste 0 -- -- 49
2019-06-05 14:00:00 12.4 37 Oeste 58 Oeste 0 -- -- 51
2019-06-05 13:00:00 15 23 Oeste 48 Oeste 0 -- -- 42
2019-06-05 12:00:00 14.9 32 Sudoeste 51 Sudoeste 0 -- -- 37
2019-06-05 11:00:00 13.7 25 Sudoeste 47 Sudoeste 0 -- -- 54
2019-06-05 10:00:00 14 23 Sudoeste 53 Sudoeste 0 -- -- 63
2019-06-05 09:00:00 13.4 27 Sudoeste 45 Sudoeste 0 -- -- 69
2019-06-05 08:00:00 13.4 18 Sudoeste 29 Sudoeste 0 -- -- 67
2019-06-05 07:00:00 11.7 12 Sudoeste 21 Sudoeste 0 -- -- 69
2019-06-05 06:00:00 11.8 11 Sudoeste 21 Sudoeste 0 -- -- 65
2019-06-05 05:00:00 12.4 12 Sur 15 Sur 0 -- -- 58
2019-06-05 04:00:00 13 9 Sur 20 Sur 0 -- -- 57
2019-06-05 03:00:00 15.1 15 Sur 26 Sur 0 -- -- 52
2019-06-05 02:00:00 14.4 9 Sur 14 Sur 0 -- -- 52
2019-06-05 01:00:00 14.1 11 Sudoeste 15 Sudoeste 0 -- -- 46
2019-06-05 00:00:00 14.8 6 Sudoeste 15 Sur 0 -- -- 38
2019-06-04 23:00:00 14.8 9 Sur 16 Sur 0 -- -- 30
2019-06-04 22:00:00 15.2 10 Sur 19 Sur 0 -- -- 37
2019-06-04 21:00:00 15.9 13 Sur 22 Sur 0 -- -- 44
2019-06-04 20:00:00 17.6 13 Sur 29 Sur 0 -- -- 56
2019-06-04 19:00:00 20.1 18 Sudeste 36 Sudeste 0 -- -- 56
2019-06-04 18:00:00 21.3 24 Sudeste 39 Sudeste 0 -- -- 53
2019-06-04 17:00:00 22.5 22 Sudeste 40 Sudeste 0 -- -- 47
2019-06-04 16:00:00 23.3 24 Sudeste 40 Sudeste 0 -- -- 45
2019-06-04 15:00:00 23.7 23 Sudeste 39 Sudeste 0 -- -- 41
2019-06-04 14:00:00 23.9 19 Sur 38 Sudeste 0 -- -- 35
2019-06-04 13:00:00 23.6 18 Sur 35 Sudeste 0 -- -- 35
2019-06-04 12:00:00 23.7 19 Sur 37 Sur 0 -- -- 31
2019-06-04 11:00:00 23.1 15 Sudoeste 32 Sudoeste 0 -- -- 31
2019-06-04 10:00:00 21.8 10 Sudeste 18 Sudeste 0 -- -- 33
2019-06-04 09:00:00 19.8 7 Sudeste 13 Sudoeste 0 -- -- 41
2019-06-04 08:00:00 17.4 8 Sudoeste 13 Sur 0 -- -- 43
2019-06-04 07:00:00 14.2 10 Sur 17 Sudoeste 0 -- -- 48
2019-06-04 06:00:00 13.3 16 Sudoeste 19 Sudoeste 0 -- -- 53
2019-06-04 05:00:00 14.4 14 Sudoeste 18 Sudoeste 0 -- -- 49
2019-06-04 04:00:00 14.3 13 Sudoeste 17 Sudoeste 0 -- -- 50
2019-06-04 03:00:00 14.1 14 Sudoeste 20 Sudoeste 0 -- -- 52
2019-06-04 02:00:00 14.5 15 Sudoeste 23 Sudoeste 0 -- -- 51
2019-06-04 01:00:00 14.6 15 Sudoeste 22 Sudoeste 0 -- -- 51
2019-06-04 00:00:00 15.4 15 Sudoeste 26 Sudoeste 0 -- -- 53
2019-06-03 23:00:00 15.6 15 Sudoeste 24 Sudoeste 0 -- -- 53
2019-06-03 22:00:00 15.3 12 Sudoeste 17 Sudoeste 0 -- -- 55
2019-06-03 21:00:00 17.1 10 Sudoeste 13 Sudeste 0 -- -- 54
2019-06-03 20:00:00 20 10 Sudeste 17 Sudeste 0 -- -- 52
2019-06-03 19:00:00 21.6 9 Este 20 Este 0 -- -- 50
2019-06-03 18:00:00 21.6 9 Este 21 Este 0 -- -- 50
2019-06-03 17:00:00 22.3 7 Este 20 Sudeste 0 -- -- 51
2019-06-03 16:00:00 21.3 13 Este 25 Sudeste 0 -- -- 48
2019-06-03 15:00:00 22.9 8 Este 33 Sur 0 -- -- 42
2019-06-03 14:00:00 25 21 Sur 33 Sur 0 -- -- 37
2019-06-03 13:00:00 24.6 22 Sur 36 Sur 0 -- -- 35
2019-06-03 12:00:00 24.7 21 Sur 31 Sur 0 -- -- 35
2019-06-03 11:00:00 23.6 16 Sudoeste 32 Sudoeste 0 -- -- 36
2019-06-03 10:00:00 22.1 19 Sudoeste 32 Sudoeste 0 -- -- 34
2019-06-03 09:00:00 20.7 13 Sudoeste 22 Sudoeste 0 -- -- 38
2019-06-03 08:00:00 18.1 18 Sudoeste 30 Sudoeste 0 -- -- 40
2019-06-03 07:00:00 15.8 16 Sudoeste 21 Sudoeste 0 -- -- 42
2019-06-03 06:00:00 15 18 Sudoeste 24 Sudoeste 0 -- -- 43
2019-06-03 05:00:00 15.2 19 Sudoeste 23 Sudoeste 0 -- -- 43
2019-06-03 04:00:00 14.8 14 Sudoeste 22 Sudoeste 0 -- -- 44
2019-06-03 03:00:00 14.7 19 Sudoeste 23 Sudoeste 0 -- -- 42
2019-06-03 02:00:00 14.2 16 Sudoeste 21 Sudoeste 0 -- -- 40
2019-06-03 01:00:00 15.5 17 Sudoeste 23 Sudoeste 0 -- -- 36
2019-06-03 00:00:00 16.5 19 Sudoeste 21 Sudoeste 0 -- -- 38
2019-06-02 23:00:00 16.1 15 Sudoeste 19 Sudoeste 0 -- -- 34
2019-06-02 22:00:00 16.4 15 Sudoeste 20 Sudoeste 0 -- -- 33
2019-06-02 21:00:00 16.9 10 Sudoeste 17 Sur 0 -- -- 49
2019-06-02 20:00:00 20 12 Sur 18 Sur 0 -- -- 42
2019-06-02 19:00:00 21.6 10 Sur 19 Sudeste 0 -- -- 42
2019-06-02 18:00:00 22.5 12 Sudeste 24 Este 0 -- -- 41
2019-06-02 17:00:00 23 16 Este 28 Este 0 -- -- 42
2019-06-02 16:00:00 22.1 18 Este 28 Este 0 -- -- 43
2019-06-02 15:00:00 23.3 15 Este 26 Este 0 -- -- 41
2019-06-02 14:00:00 23.5 13 Este 24 Este 0 -- -- 42
2019-06-02 13:00:00 22.7 13 Este 27 Este 0 -- -- 41
2019-06-02 12:00:00 22.9 13 Este 25 Sudeste 0 -- -- 39
2019-06-02 11:00:00 22.6 5 Nordeste 17 Este 0 -- -- 36
2019-06-02 10:00:00 21.1 4 Sur 8 Sur 0 -- -- 37
2019-06-02 09:00:00 19.9 2 Norte 5 Nordeste 0 -- -- 47
2019-06-02 08:00:00 16.6 2 Sudoeste 12 Oeste 0 -- -- 48
2019-06-02 07:00:00 13.2 5 Oeste 14 Sudoeste 0 -- -- 56
2019-06-02 06:00:00 12.3 8 Oeste 13 Sudoeste 0 -- -- 60
2019-06-02 05:00:00 12.6 8 Oeste 14 Sudoeste 0 -- -- 59
2019-06-02 04:00:00 11.8 10 Sudoeste 14 Sudoeste 0 -- -- 63
2019-06-02 03:00:00 12.1 7 Oeste 10 Sudoeste 0 -- -- 64
2019-06-02 02:00:00 12.4 3 Noroeste 22 Sudoeste 0 -- -- 62
2019-06-02 01:00:00 12.8 10 Sudoeste 13 Sudoeste 0 -- -- 57
2019-06-02 00:00:00 12.4 10 Sudoeste 12 Sudoeste 0 -- -- 62
2019-06-01 23:00:00 11.9 5 Oeste 12 Sudoeste 0 -- -- 69
2019-06-01 22:00:00 13.2 8 Sudoeste 12 Sudoeste 0 -- -- 64
2019-06-01 21:00:00 15.2 8 Sudoeste 15 Sur 0 -- -- 59
2019-06-01 20:00:00 18.1 10 Sur 18 Sur 0 -- -- 51
2019-06-01 19:00:00 19.4 13 Sur 20 Este 0 -- -- 51
2019-06-01 18:00:00 20.3 13 Sudeste 27 Este 0 -- -- 50
2019-06-01 17:00:00 20.5 15 Este 27 Este 0 -- -- 49
2019-06-01 16:00:00 21.2 14 Este 30 Este 0 -- -- 49
2019-06-01 15:00:00 21.7 17 Este 30 Este 0 -- -- 47
2019-06-01 14:00:00 21.1 11 Este 25 Sudeste 0 -- -- 42
2019-06-01 13:00:00 20.7 8 Sudeste 22 Sudeste 0 -- -- 41
2019-06-01 12:00:00 19.6 10 Sudeste 23 Sur 0 -- -- 40
2019-06-01 11:00:00 18.8 9 Sur 19 Sudeste 0 -- -- 39
2019-06-01 10:00:00 17.6 12 Sudeste 21 Sudeste 0 -- -- 46
2019-06-01 09:00:00 16.6 10 Sudeste 16 Sur 0 -- -- 54
2019-06-01 08:00:00 15 8 Sur 14 Sur 0 -- -- 59
2019-06-01 07:00:00 9.9 8 Sudoeste 9 Sudoeste 0 -- -- 75
2019-06-01 06:00:00 8.7 4 Oeste 9 Sudoeste 0 -- -- 76
2019-06-01 05:00:00 9.8 3 Sudoeste 12 Sudoeste 0 -- -- 73
2019-06-01 04:00:00 9.7 5 Sudoeste 9 Sudoeste 0 -- -- 77
2019-06-01 03:00:00 11.1 5 Sudoeste 12 Sudoeste 0 -- -- 70
2019-06-01 02:00:00 11.6 3 Sur 14 Sudoeste 0 -- -- 69
2019-06-01 01:00:00 12 8 Sudoeste 13 Sudoeste 0 -- -- 69
2019-06-01 00:00:00 12.1 12 Sudoeste 15 Sudoeste 0 -- -- 69
2019-05-31 23:00:00 12.6 12 Sudoeste 15 Sudoeste 0 -- -- 71
2019-05-31 22:00:00 13.2 11 Sudoeste 14 Sudoeste 0 -- -- 74
2019-05-31 21:00:00 14.8 0 Calma 12 Sudoeste 0 -- -- 69
2019-05-31 20:00:00 17.6 8 Sur 17 Sur 0 -- -- 60
2019-05-31 19:00:00 18.3 11 Sur 19 Sur 0 -- -- 58
2019-05-31 18:00:00 19.2 12 Sur 22 Este 0 -- -- 55
2019-05-31 17:00:00 19.3 13 Este 25 Este 0 -- -- 59
2019-05-31 16:00:00 19.3 14 Sudeste 26 Este 0 -- -- 53
2019-05-31 15:00:00 19.2 14 Este 25 Este 0 -- -- 50
2019-05-31 14:00:00 19.6 16 Este 27 Este 0 -- -- 49
2019-05-31 13:00:00 19.4 10 Este 22 Este 0 -- -- 52
2019-05-31 12:00:00 18.6 11 Este 23 Este 0 -- -- 49
2019-05-31 11:00:00 18.2 10 Este 19 Este 0 -- -- 51
2019-05-31 10:00:00 17.5 6 Nordeste 11 Este 0 -- -- 48
2019-05-31 09:00:00 16.5 4 Nordeste 10 Este 0 -- -- 53
2019-05-31 08:00:00 14 2 Nordeste 14 Oeste 0 -- -- 57
2019-05-31 07:00:00 9.8 14 Oeste 16 Oeste 0 -- -- 66
2019-05-31 06:00:00 9.4 9 Sudoeste 14 Oeste 0 -- -- 66
2019-05-31 05:00:00 8.8 8 Oeste 14 Oeste 0 -- -- 68
2019-05-31 04:00:00 9.4 13 Oeste 15 Oeste 0 -- -- 65
2019-05-31 03:00:00 9.8 12 Sudoeste 17 Sudoeste 0 -- -- 66
2019-05-31 02:00:00 9.7 3 Sudoeste 12 Sudoeste 0 -- -- 68
2019-05-31 01:00:00 10.1 4 Sudoeste 14 Oeste 0 -- -- 67
2019-05-31 00:00:00 10.4 9 Noroeste 17 Oeste 0 -- -- 67
2019-05-30 23:00:00 11.7 13 Oeste 15 Oeste 0 -- -- 66
2019-05-30 22:00:00 12.5 6 Sudoeste 10 Sudoeste 0 -- -- 70
2019-05-30 21:00:00 14.2 8 Sudoeste 14 Sur 0 -- -- 70
2019-05-30 20:00:00 17.8 4 Sur 17 Sudeste 0 -- -- 59
2019-05-30 19:00:00 18 9 Sudeste 20 Este 0 -- -- 57
2019-05-30 18:00:00 18.7 8 Sudeste 23 Nordeste 0 -- -- 53
2019-05-30 17:00:00 19.1 10 Este 28 Este 0 -- -- 50
2019-05-30 16:00:00 20.5 16 Nordeste 29 Este 0 -- -- 42
2019-05-30 15:00:00 19.9 9 Nordeste 30 Nordeste 0 -- -- 48
2019-05-30 14:00:00 18.8 10 Nordeste 32 Este 0 -- -- 48
2019-05-30 13:00:00 18.2 14 Este 24 Este 0 -- -- 51
2019-05-30 12:00:00 17.9 14 Este 23 Este 0 -- -- 51
2019-05-30 11:00:00 17.4 7 Nordeste 19 Nordeste 0 -- -- 43
2019-05-30 10:00:00 15.6 5 Este 15 Nordeste 0 -- -- 45
2019-05-30 09:00:00 13.9 3 Nordeste 8 Nordeste 0 -- -- 52
2019-05-30 08:00:00 11.3 2 Norte 9 Oeste 0 -- -- 56
2019-05-30 07:00:00 6.8 7 Oeste 11 Sudoeste 0 -- -- 64
2019-05-30 06:00:00 4.9 3 Sudoeste 9 Sudoeste 0 -- -- 69
2019-05-30 05:00:00 5.8 2 Oeste 12 Oeste 0 -- -- 67
2019-05-30 04:00:00 6.8 6 Oeste 10 Oeste 0 -- -- 65
2019-05-30 03:00:00 6.4 3 Sudeste 29 Oeste 0 -- -- 72
2019-05-30 02:00:00 7.7 22 Noroeste 42 Oeste 0 -- -- 68
2019-05-30 01:00:00 7.8 31 Oeste 40 Oeste 0 -- -- 71
2019-05-30 00:00:00 7.6 13 Oeste 31 Oeste 0 -- -- 76
2019-05-29 23:00:00 8.3 14 Oeste 34 Oeste 0 -- -- 73
2019-05-29 22:00:00 9 21 Oeste 42 Noroeste 0 -- -- 71
2019-05-29 21:00:00 9.9 17 Noroeste 45 Oeste 0 -- -- 65
2019-05-29 20:00:00 12.4 18 Noroeste 37 Noroeste 0 -- -- 54
2019-05-29 19:00:00 13.6 20 Noroeste 36 Oeste 0 -- -- 48
2019-05-29 18:00:00 14.4 18 Noroeste 32 Oeste 0 -- -- 46
2019-05-29 17:00:00 14.4 19 Noroeste 37 Oeste 0 -- -- 47
2019-05-29 16:00:00 13.8 18 Noroeste 33 Norte 0 -- -- 51
2019-05-29 15:00:00 13.8 15 Noroeste 30 Noroeste 0 -- -- 49
2019-05-29 14:00:00 12.4 16 Noroeste 33 Oeste 0 -- -- 54
2019-05-29 13:00:00 10.9 20 Oeste 35 Noroeste 0 -- -- 55
2019-05-29 12:00:00 9.5 21 Noroeste 45 Oeste 0 -- -- 61
2019-05-29 11:00:00 8.5 26 Noroeste 48 Noroeste 0 -- -- 62
2019-05-29 10:00:00 7.4 17 Oeste 90 Oeste 0 -- -- 67
2019-05-29 09:00:00 5 66 Noroeste 90 Oeste 0 -- -- 71
2019-05-29 08:00:00 3.4 58 Oeste 82 Noroeste 0 -- -- 76
2019-05-29 07:00:00 2.8 48 Noroeste 67 Noroeste 0 -- -- 82
2019-05-29 06:00:00 2.9 13 Noroeste 57 Oeste 0 -- -- 79
2019-05-29 05:00:00 2.9 34 Noroeste 63 Noroeste 0 -- -- 78
2019-05-29 04:00:00 3.8 49 Oeste 78 Noroeste 0 -- -- 70
2019-05-29 03:00:00 3.9 40 Oeste 69 Noroeste 0 -- -- 68
2019-05-29 02:00:00 4.6 46 Oeste 73 Oeste 0 -- -- 69
2019-05-29 01:00:00 4.8 55 Oeste 72 Oeste 0 -- -- 71
2019-05-29 00:00:00 5.2 42 Oeste 62 Noroeste 0 -- -- 70
2019-05-28 23:00:00 5.6 39 Oeste 55 Oeste 0 -- -- 73
2019-05-28 22:00:00 6.7 13 Noroeste 42 Oeste 0 -- -- 76
2019-05-28 21:00:00 8 33 Oeste 51 Oeste 0 -- -- 72
2019-05-28 20:00:00 11 23 Noroeste 45 Noroeste 0 -- -- 60
2019-05-28 19:00:00 12.7 24 Noroeste 44 Noroeste 0 -- -- 57
2019-05-28 18:00:00 14.7 19 Oeste 38 Oeste 0 -- -- 48
2019-05-28 17:00:00 15.3 19 Oeste 35 Noroeste 0 -- -- 45
2019-05-28 16:00:00 15.9 17 Oeste 34 Oeste 0 -- -- 41
2019-05-28 15:00:00 15.4 22 Oeste 42 Oeste 0 -- -- 34
2019-05-28 14:00:00 14.9 22 Oeste 37 Noroeste 0 -- -- 37
2019-05-28 13:00:00 14.4 15 Noroeste 35 Oeste 0 -- -- 47
2019-05-28 12:00:00 13.3 24 Oeste 43 Oeste 0 -- -- 37
2019-05-28 11:00:00 12.2 23 Oeste 37 Oeste 0 -- -- 30
2019-05-28 10:00:00 10.1 20 Noroeste 33 Noroeste 0 -- -- 54
2019-05-28 09:00:00 10.1 17 Oeste 33 Oeste 0 -- -- 41
2019-05-28 08:00:00 8.8 27 Oeste 39 Oeste 0 -- -- 39
2019-05-28 07:00:00 7.5 33 Oeste 44 Oeste 0 -- -- 41
2019-05-28 06:00:00 7 18 Oeste 27 Oeste 0 -- -- 71
2019-05-28 05:00:00 7.5 14 Oeste 23 Oeste 0 -- -- 68
2019-05-28 04:00:00 8.2 17 Sudoeste 29 Sudoeste 0 -- -- 67
2019-05-28 03:00:00 8.5 19 Noroeste 38 Oeste 0 -- -- 78
2019-05-28 02:00:00 8.8 17 Oeste 46 Oeste 0 -- -- 81
2019-05-28 01:00:00 9.1 18 Oeste 44 Oeste 0 -- -- 80
2019-05-28 00:00:00 9.1 34 Oeste 44 Noroeste 0 -- -- 81
2019-05-27 23:00:00 9.7 29 Oeste 42 Oeste 0 -- -- 80
2019-05-27 22:00:00 10.8 19 Oeste 29 Oeste 0 -- -- 78
2019-05-27 21:00:00 12.4 14 Oeste 28 Oeste 0 -- -- 69
2019-05-27 20:00:00 15.7 15 Noroeste 35 Oeste 0 -- -- 57
2019-05-27 19:00:00 17.2 16 Noroeste 42 Noroeste 0 -- -- 50
2019-05-27 18:00:00 18 20 Noroeste 41 Noroeste 0 -- -- 52
2019-05-27 17:00:00 18 19 Noroeste 33 Noroeste 0 -- -- 52
2019-05-27 16:00:00 18.6 17 Noroeste 29 Noroeste 0 -- -- 46
2019-05-27 15:00:00 18 18 Noroeste 32 Noroeste 0 -- -- 47
2019-05-27 14:00:00 18 17 Noroeste 32 Noroeste 0 -- -- 48
2019-05-27 13:00:00 17.2 19 Noroeste 28 Norte 0 -- -- 53
2019-05-27 12:00:00 16.2 17 Noroeste 35 Oeste 0 -- -- 53
2019-05-27 11:00:00 15.5 22 Noroeste 40 Noroeste 0 -- -- 55
2019-05-27 10:00:00 14.3 19 Noroeste 41 Oeste 0 -- -- 57
2019-05-27 09:00:00 12 27 Oeste 48 Oeste 0 -- -- 59
2019-05-27 08:00:00 11 33 Oeste 46 Oeste 0 -- -- 60
2019-05-27 07:00:00 8.8 30 Oeste 42 Oeste 0 -- -- 69
2019-05-27 06:00:00 7.5 32 Oeste 45 Oeste 0 -- -- 77
2019-05-27 05:00:00 7.8 31 Oeste 49 Noroeste 0 -- -- 77
2019-05-27 04:00:00 7.1 26 Noroeste 45 Noroeste 0 -- -- 81
2019-05-27 03:00:00 7.3 32 Oeste 40 Oeste 0 -- -- 75
2019-05-27 02:00:00 7.8 30 Oeste 39 Oeste 0 -- -- 70
2019-05-27 01:00:00 8.2 19 Oeste 35 Oeste 0 -- -- 60
2019-05-27 00:00:00 9.3 27 Oeste 35 Oeste 0 -- -- 55
2019-05-26 23:00:00 8.5 28 Oeste 40 Oeste 0 -- -- 72
2019-05-26 22:00:00 9 33 Oeste 43 Oeste 0 -- -- 74
2019-05-26 21:00:00 9.9 11 Noroeste 28 Noroeste 0 -- -- 74
2019-05-26 20:00:00 12.4 16 Noroeste 31 Oeste 0 -- -- 61
2019-05-26 19:00:00 14.2 14 Noroeste 32 Norte 0 -- -- 58
2019-05-26 18:00:00 14.6 22 Noroeste 37 Noroeste 0 -- -- 57
2019-05-26 17:00:00 14.6 23 Noroeste 45 Norte 0 -- -- 57
2019-05-26 16:00:00 15 21 Noroeste 36 Oeste 0 -- -- 57
2019-05-26 15:00:00 14.3 21 Noroeste 34 Noroeste 0 -- -- 60
2019-05-26 14:00:00 14 15 Noroeste 29 Noroeste 0 -- -- 63
2019-05-26 13:00:00 13.8 16 Noroeste 28 Noroeste 0 -- -- 63
2019-05-26 12:00:00 12.1 19 Noroeste 32 Noroeste 0 -- -- 68
2019-05-26 11:00:00 10.5 18 Noroeste 26 Norte 0 -- -- 70
2019-05-26 10:00:00 8.5 19 Noroeste 29 Noroeste 0 -- -- 78
2019-05-26 09:00:00 8 13 Noroeste 26 Oeste 0 -- -- 80
2019-05-26 08:00:00 5.5 22 Oeste 31 Oeste 0 -- -- 85
2019-05-26 07:00:00 3.3 21 Oeste 30 Oeste 0 -- -- 92
2019-05-26 06:00:00 3.8 15 Oeste 25 Oeste 0 -- -- 90
2019-05-26 05:00:00 4.1 18 Oeste 25 Oeste 0 -- -- 88
2019-05-26 04:00:00 4.8 17 Oeste 36 Oeste 0 -- -- 86
2019-05-26 03:00:00 6.2 24 Oeste 35 Oeste 0 -- -- 81
2019-05-26 02:00:00 6.4 21 Oeste 44 Oeste 0 -- -- 83
2019-05-26 01:00:00 6.6 27 Oeste 44 Oeste 0 -- -- 85
2019-05-26 00:00:00 7.4 29 Oeste 37 Oeste 0 -- -- 84
2019-05-25 23:00:00 7.4 30 Oeste 39 Oeste 0 -- -- 86
2019-05-25 22:00:00 8.2 23 Oeste 32 Noroeste 0 -- -- 84
2019-05-25 21:00:00 9.2 11 Noroeste 37 Oeste 0 -- -- 81
2019-05-25 20:00:00 11.4 25 Oeste 39 Oeste 0 -- -- 71
2019-05-25 19:00:00 12.4 23 Oeste 37 Oeste 0 -- -- 67
2019-05-25 18:00:00 13.3 21 Noroeste 38 Oeste 0 -- -- 65
2019-05-25 17:00:00 13.6 17 Noroeste 35 Noroeste 0 -- -- 65
2019-05-25 16:00:00 13.2 15 Noroeste 36 Oeste 0 -- -- 68
2019-05-25 15:00:00 12.3 22 Noroeste 40 Oeste 0 -- -- 74
2019-05-25 14:00:00 10.2 31 Noroeste 45 Oeste 0 -- -- 79
2019-05-25 13:00:00 9 30 Noroeste 53 Noroeste 0 -- -- 84
2019-05-25 12:00:00 7.9 39 Oeste 51 Oeste 0 -- -- 89
2019-05-25 11:00:00 5.7 34 Oeste 44 Oeste 0 -- -- 99
2019-05-25 10:00:00 4.8 30 Oeste 43 Oeste 0 -- -- 100
2019-05-25 09:00:00 4.5 27 Oeste 50 Oeste 0 -- -- 100
2019-05-25 08:00:00 4.4 37 Noroeste 58 Noroeste 0 -- -- 100
2019-05-25 07:00:00 4.3 41 Noroeste 67 Oeste 0 -- -- 100
2019-05-25 06:00:00 4.4 46 Oeste 66 Oeste 0 -- -- 100
2019-05-25 05:00:00 4.6 38 Oeste 59 Oeste 0 -- -- 100
2019-05-25 04:00:00 4.9 40 Oeste 54 Oeste 0 -- -- 100
2019-05-25 03:00:00 5.3 33 Oeste 46 Oeste 0 -- -- 100
2019-05-25 02:00:00 5.4 24 Oeste 38 Oeste 0.2 -- -- 100
2019-05-25 01:00:00 5.8 23 Oeste 36 Oeste 0.2 -- -- 98
2019-05-25 00:00:00 6 23 Oeste 36 Noroeste 0 -- -- 97
2019-05-24 23:00:00 6.1 23 Oeste 37 Oeste 0 -- -- 98
2019-05-24 22:00:00 6.7 17 Noroeste 49 Oeste 0 -- -- 96
2019-05-24 21:00:00 6.8 23 Noroeste 39 Oeste 0 -- -- 94
2019-05-24 20:00:00 7.4 23 Noroeste 42 Oeste 0 -- -- 91
2019-05-24 19:00:00 7.8 23 Oeste 45 Oeste 0 -- -- 89
2019-05-24 18:00:00 7.3 26 Noroeste 39 Noroeste 0 -- -- 93
2019-05-24 17:00:00 7.6 27 Oeste 37 Noroeste 0 -- -- 92
2019-05-24 16:00:00 7.9 18 Noroeste 28 Noroeste 0 -- -- 94
2019-05-24 15:00:00 9.3 12 Noroeste 32 Oeste 0 -- -- 85
2019-05-24 14:00:00 7.5 23 Oeste 40 Noroeste 0.2 -- -- 91
2019-05-24 13:00:00 7.4 21 Noroeste 41 Noroeste 0.4 -- -- 94
2019-05-24 12:00:00 7.3 17 Noroeste 26 Noroeste 4.2 -- -- 99
2019-05-24 11:00:00 8.6 9 Este 13 Este 0.4 -- -- 100
2019-05-24 10:00:00 8.6 2 Sur 13 Norte 1.6 -- -- 100
2019-05-24 09:00:00 8.8 6 Norte 12 Norte 0 -- -- 99
2019-05-24 08:00:00 8.6 6 Norte 11 Norte 0 -- -- 99
2019-05-24 07:00:00 8.4 0 Calma 6 Oeste 0 -- -- 97
2019-05-24 06:00:00 8.5 4 Oeste 9 Norte 0 -- -- 97
2019-05-24 05:00:00 9.2 3 Sudoeste 6 Sudoeste 0 -- -- 98
2019-05-24 04:00:00 9.5 2 Sur 22 Este 0.6 -- -- 98
2019-05-24 03:00:00 10.1 16 Oeste 28 Oeste 4.2 -- -- 94
2019-05-24 02:00:00 11 5 Oeste 8 Sudoeste 0 -- -- 84
2019-05-24 01:00:00 10.7 5 Oeste 17 Noroeste 0 -- -- 80
2019-05-24 00:00:00 11.2 10 Oeste 26 Noroeste 0 -- -- 82
2019-05-23 23:00:00 10.4 2 Sudoeste 14 Oeste 0 -- -- 81
2019-05-23 22:00:00 11.1 3 Oeste 10 Sudoeste 0 -- -- 80
2019-05-23 21:00:00 13.7 9 Norte 28 Norte 0 -- -- 70
2019-05-23 20:00:00 15.3 5 Este 19 Este 0 -- -- 82
2019-05-23 19:00:00 16.8 8 Este 17 Sudoeste 0 -- -- 72
2019-05-23 18:00:00 17.2 13 Sudoeste 24 Sudoeste 0 -- -- 49
2019-05-23 17:00:00 17.3 9 Sudeste 15 Sudeste 0 -- -- 68
2019-05-23 16:00:00 17.6 6 Este 18 Sur 0 -- -- 67
2019-05-23 15:00:00 19.5 12 Sudoeste 27 Sudoeste 0 -- -- 44
2019-05-23 14:00:00 18.7 9 Oeste 21 Oeste 0 -- -- 39
2019-05-23 13:00:00 18.7 9 Oeste 27 Oeste 0 -- -- 39
2019-05-23 12:00:00 18.6 11 Oeste 25 Sudoeste 0 -- -- 36
2019-05-23 11:00:00 18.3 10 Sudoeste 20 Noroeste 0 -- -- 45
2019-05-23 10:00:00 18 9 Sudoeste 18 Sudoeste 0 -- -- 44
2019-05-23 09:00:00 16.5 9 Sudoeste 15 Sudoeste 0 -- -- 52
2019-05-23 08:00:00 14.5 9 Oeste 18 Sudoeste 0 -- -- 64
2019-05-23 07:00:00 11.2 15 Sudoeste 19 Sudoeste 0 -- -- 74
2019-05-23 06:00:00 10.3 13 Sudoeste 17 Sudoeste 0 -- -- 79
2019-05-23 05:00:00 10.5 13 Sudoeste 17 Sudoeste 0 -- -- 78
2019-05-23 04:00:00 10.8 13 Sudoeste 19 Sudoeste 0 -- -- 79
2019-05-23 03:00:00 10.8 15 Sudoeste 19 Oeste 0 -- -- 83
2019-05-23 02:00:00 10 12 Sudoeste 21 Sudoeste 0 -- -- 89
2019-05-23 01:00:00 10.1 11 Sudoeste 16 Sudoeste 0 -- -- 91
2019-05-23 00:00:00 9.9 9 Sudoeste 11 Sudoeste 0 -- -- 90
2019-05-22 23:00:00 10.2 9 Sudoeste 13 Sudoeste 0 -- -- 89
2019-05-22 22:00:00 10.5 8 Sudoeste 10 Sudoeste 0 -- -- 92
2019-05-22 21:00:00 11.6 4 Sudoeste 7 Sur 0 -- -- 88
2019-05-22 20:00:00 13 5 Sur 17 Sur 0 -- -- 84
2019-05-22 19:00:00 13 5 Sudeste 10 Sudeste 0 -- -- 84
2019-05-22 18:00:00 12.9 5 Sudeste 20 Este 0 -- -- 83
2019-05-22 17:00:00 14.8 14 Este 25 Sudeste 0 -- -- 72
2019-05-22 16:00:00 15.5 8 Sudeste 19 Sudeste 0 -- -- 58
2019-05-22 15:00:00 16.1 12 Este 23 Este 0 -- -- 59
2019-05-22 14:00:00 15.2 12 Este 22 Este 0 -- -- 56
2019-05-22 13:00:00 14.8 11 Sur 22 Sudeste 0 -- -- 52
2019-05-22 12:00:00 14 9 Este 24 Sur 0 -- -- 57
2019-05-22 11:00:00 13.5 16 Sur 25 Sur 0 -- -- 59
2019-05-22 10:00:00 13.4 15 Sur 22 Sudeste 0 -- -- 58
2019-05-22 09:00:00 12 13 Sudoeste 19 Sudoeste 0 -- -- 56
2019-05-22 08:00:00 9.8 10 Sudoeste 21 Sudoeste 0 -- -- 65
2019-05-22 07:00:00 6.2 17 Sudoeste 21 Sudoeste 0 -- -- 72
2019-05-22 06:00:00 6 15 Sudoeste 16 Sudoeste 0 -- -- 72
2019-05-22 05:00:00 4.8 10 Sudoeste 13 Sudoeste 0 -- -- 78
2019-05-22 04:00:00 5 10 Sudoeste 12 Sudoeste 0 -- -- 79
2019-05-22 03:00:00 5.2 10 Sudoeste 14 Sudoeste 0 -- -- 83
2019-05-22 02:00:00 6.4 8 Sudoeste 11 Oeste 0 -- -- 77
2019-05-22 01:00:00 7 5 Oeste 11 Oeste 0 -- -- 78
2019-05-22 00:00:00 5.6 9 Sudoeste 12 Sudoeste 0 -- -- 88
2019-05-21 23:00:00 6.9 5 Oeste 15 Sudoeste 0 -- -- 83
2019-05-21 22:00:00 6.4 9 Sudoeste 14 Oeste 0 -- -- 90
2019-05-21 21:00:00 7.5 7 Sudoeste 14 Sudoeste 0 -- -- 93
2019-05-21 20:00:00 8.3 8 Sudoeste 12 Oeste 0 -- -- 92
2019-05-21 19:00:00 8.9 0 Calma 7 Nordeste 1 -- -- 98
2019-05-21 18:00:00 7.6 3 Sudeste 33 Noroeste 1.8 -- -- 97
2019-05-21 17:00:00 8.8 19 Sudoeste 30 Sudoeste 0.6 -- -- 87
2019-05-21 16:00:00 8 11 Sudoeste 33 Sudoeste 1.4 -- -- 89
2019-05-21 15:00:00 8.8 7 Sudeste 12 Norte 0.8 -- -- 93
2019-05-21 14:00:00 9.9 4 Sudoeste 18 Norte 1.2 -- -- 87
2019-05-21 13:00:00 11.5 11 Sur 23 Sudeste 0 -- -- 60
2019-05-21 12:00:00 11.7 13 Sudeste 26 Sur 0 -- -- 56
2019-05-21 11:00:00 12.8 12 Sur 21 Sudeste 0 -- -- 50
2019-05-21 10:00:00 12.3 10 Sur 21 Sur 0 -- -- 50
2019-05-21 09:00:00 10.5 10 Sur 17 Sur 0 -- -- 50
2019-05-21 08:00:00 8.9 10 Sur 18 Sur 0 -- -- 53
2019-05-21 07:00:00 7 8 Sur 13 Sur 0 -- -- 58
2019-05-21 06:00:00 5.8 8 Sur 10 Sur 0 -- -- 62
2019-05-21 05:00:00 3.4 2 Sudoeste 4 Sudoeste 0 -- -- 74
2019-05-21 04:00:00 4.6 3 Sur 10 Sudoeste 0 -- -- 68
2019-05-21 03:00:00 5.1 9 Sudoeste 12 Sudoeste 0 -- -- 69
2019-05-21 02:00:00 5.5 10 Sudoeste 12 Sudoeste 0 -- -- 81
2019-05-21 01:00:00 5.4 9 Sudoeste 11 Sudoeste 0 -- -- 87
2019-05-21 00:00:00 6 5 Sudoeste 7 Oeste 0 -- -- 85